Terminal Aerodrome Forecast
Issued by NWS

Home | Current Version | Previous Version | Graphics & Text | Print | Product List | Glossary On
Versions: 1 2 3 4 5 6 7 8 9 10 11 12 13 14 15 16 17
000
FTUS43 KMPX 281733
TAFRNH
TAF
KRNH 281733Z 2818/2918 15012G19KT 4SM BR OVC008
     FM282300 15005KT 3SM BR OVC007
      TEMPO 2902/2905 1 1/2SM -FZDZSN OVC005
     FM290600 31009KT 6SM BR OVC006
     FM290900 31014G24KT P6SM OVC010
     FM291500 32018G26KT P6SM OVC018=

USA.gov is the U.S. government's official web portal to all federal, state and local government web resources and services.